createdAt,value
2024-02-23T00:01:07.168Z,58.83
2024-02-23T00:03:37.181Z,59.70
2024-02-23T00:06:04.010Z,58.76
2024-02-23T00:08:30.579Z,59.32
2024-02-23T00:10:57.264Z,59.70
2024-02-23T00:13:23.945Z,59.57
2024-02-23T00:15:50.552Z,59.14
2024-02-23T00:18:18.344Z,59.21
2024-02-23T00:20:45.283Z,59.04
2024-02-23T00:23:12.018Z,59.12
2024-02-23T00:25:38.705Z,58.96
2024-02-23T00:28:05.674Z,59.74
2024-02-23T00:30:32.225Z,59.83
2024-02-23T00:32:58.823Z,59.23
2024-02-23T00:35:25.430Z,59.90
2024-02-23T00:37:52.213Z,59.37
2024-02-23T00:40:18.850Z,59.64
2024-02-23T00:42:45.490Z,58.97
2024-02-23T00:45:12.047Z,59.97
2024-02-23T00:47:39.172Z,59.90
2024-02-23T00:50:06.507Z,59.07
2024-02-23T00:52:33.655Z,59.66
2024-02-23T00:55:00.219Z,59.29
2024-02-23T00:57:31.139Z,59.82
2024-02-23T00:59:58.650Z,59.72
2024-02-23T01:02:25.855Z,59.44
2024-02-23T01:04:57.828Z,58.94
2024-02-23T01:07:24.570Z,59.17
2024-02-23T01:09:51.411Z,59.64
2024-02-23T01:12:18.102Z,59.58
2024-02-23T01:14:44.738Z,59.65
2024-02-23T01:17:11.364Z,58.80
2024-02-23T01:19:37.956Z,59.47
2024-02-23T01:22:04.936Z,59.40
2024-02-23T01:24:31.696Z,58.56
2024-02-23T01:26:59.021Z,59.06
2024-02-23T01:29:27.356Z,59.01
2024-02-23T01:31:55.638Z,58.40
2024-02-23T01:34:23.191Z,58.38
2024-02-23T01:36:50.077Z,58.78
2024-02-23T01:39:16.756Z,59.01
2024-02-23T01:41:45.109Z,58.71
2024-02-23T01:44:12.419Z,58.97
2024-02-23T01:46:39.007Z,59.09
2024-02-23T01:49:08.615Z,58.77
2024-02-23T01:51:35.940Z,59.31
2024-02-23T01:54:04.558Z,58.77
2024-02-23T01:56:32.473Z,58.49
2024-02-23T01:59:00.202Z,59.32
2024-02-23T02:01:27.264Z,59.06
2024-02-23T02:03:54.115Z,59.13
2024-02-23T02:06:20.932Z,58.57
2024-02-23T02:08:47.568Z,58.56
2024-02-23T02:11:14.228Z,58.66
2024-02-23T02:13:40.875Z,58.83
2024-02-23T02:16:07.636Z,58.71
2024-02-23T02:18:34.264Z,58.24
2024-02-23T02:21:00.872Z,59.06
2024-02-23T02:23:27.787Z,58.32
2024-02-23T02:25:58.875Z,58.27
2024-02-23T02:28:26.686Z,58.98
2024-02-23T02:30:53.951Z,58.23
2024-02-23T02:33:21.605Z,58.74
2024-02-23T02:35:48.771Z,59.15
2024-02-23T02:38:15.565Z,58.24
2024-02-23T02:40:42.191Z,58.92
2024-02-23T02:43:09.145Z,59.03
2024-02-23T02:45:35.791Z,58.11
2024-02-23T02:48:03.386Z,58.76
2024-02-23T02:50:30.366Z,58.54
2024-02-23T02:52:57.014Z,58.55
2024-02-23T02:55:23.648Z,58.12
2024-02-23T02:57:50.275Z,57.98
2024-02-23T03:00:16.995Z,57.94
2024-02-23T03:02:43.565Z,57.30
2024-02-23T03:05:10.310Z,58.11
2024-02-23T03:07:37.012Z,57.68
2024-02-23T03:10:03.840Z,57.07
2024-02-23T03:12:30.483Z,57.93
2024-02-23T03:14:57.157Z,57.07
2024-02-23T03:17:24.305Z,56.77
2024-02-23T03:19:53.991Z,57.21
2024-02-23T03:22:20.870Z,57.54
2024-02-23T03:24:47.455Z,57.75
2024-02-23T03:27:14.158Z,57.94
2024-02-23T03:29:41.153Z,57.92
2024-02-23T03:32:08.654Z,57.66
2024-02-23T03:34:37.024Z,56.98
2024-02-23T03:37:04.145Z,57.59
2024-02-23T03:39:30.919Z,57.82
2024-02-23T03:41:57.535Z,57.71
2024-02-23T03:44:24.348Z,57.43
2024-02-23T03:46:51.381Z,57.19
2024-02-23T03:49:18.150Z,57.54
2024-02-23T03:51:44.760Z,56.96
2024-02-23T03:54:11.387Z,56.60
2024-02-23T03:56:42.401Z,56.25
2024-02-23T03:59:12.541Z,56.60
2024-02-23T04:01:40.695Z,56.42
2024-02-23T04:04:08.422Z,56.38
2024-02-23T04:06:35.805Z,56.32
2024-02-23T04:09:06.315Z,57.11
2024-02-23T04:11:33.391Z,57.04
2024-02-23T04:14:01.694Z,56.04
2024-02-23T04:16:28.653Z,55.95
2024-02-23T04:18:55.684Z,56.13
2024-02-23T04:21:22.317Z,56.06
2024-02-23T04:23:49.377Z,56.75
2024-02-23T04:26:16.031Z,56.79
2024-02-23T04:28:43.619Z,56.17
2024-02-23T04:31:11.042Z,56.98
2024-02-23T04:33:38.715Z,56.05
2024-02-23T04:36:06.159Z,56.58
2024-02-23T04:38:33.277Z,55.92
2024-02-23T04:41:03.315Z,56.12
2024-02-23T04:43:30.005Z,56.11
2024-02-23T04:45:56.553Z,56.67
2024-02-23T04:48:23.149Z,55.94
2024-02-23T04:50:49.673Z,56.62
2024-02-23T04:53:16.260Z,55.78
2024-02-23T04:55:42.923Z,55.89
2024-02-23T04:58:09.512Z,56.99
2024-02-23T05:00:36.119Z,56.04
2024-02-23T05:03:05.046Z,57.04
2024-02-23T05:05:32.734Z,56.38
2024-02-23T05:08:00.644Z,56.05
2024-02-23T05:10:27.697Z,56.75
2024-02-23T05:12:54.336Z,56.04
2024-02-23T05:15:20.866Z,56.74
2024-02-23T05:17:47.584Z,56.84
2024-02-23T05:20:15.446Z,56.76
2024-02-23T05:22:42.229Z,56.80
2024-02-23T05:25:09.194Z,56.50
2024-02-23T05:27:35.745Z,56.16
2024-02-23T05:30:02.507Z,55.97
2024-02-23T05:32:29.134Z,56.85
2024-02-23T05:34:57.939Z,56.11
2024-02-23T05:37:25.250Z,56.06
2024-02-23T05:39:52.062Z,56.56
2024-02-23T05:42:18.712Z,55.89
2024-02-23T05:44:46.096Z,56.50
2024-02-23T05:47:14.979Z,56.34
2024-02-23T05:49:41.839Z,56.10
2024-02-23T05:52:08.419Z,56.28
2024-02-23T05:54:34.942Z,56.47
2024-02-23T05:57:02.099Z,56.26
2024-02-23T05:59:28.872Z,56.06
2024-02-23T06:01:58.066Z,56.12
2024-02-23T06:04:25.032Z,56.70
2024-02-23T06:06:51.941Z,56.06
2024-02-23T06:09:19.914Z,56.01
2024-02-23T06:11:46.854Z,56.35
2024-02-23T06:14:13.622Z,55.95
2024-02-23T06:16:41.457Z,56.83
2024-02-23T06:19:08.176Z,55.89
2024-02-23T06:21:34.813Z,55.87
2024-02-23T06:24:01.579Z,56.11
2024-02-23T06:26:28.260Z,56.76
2024-02-23T06:28:54.857Z,57.00
2024-02-23T06:31:21.429Z,56.63
2024-02-23T06:33:50.516Z,56.32
2024-02-23T06:36:17.548Z,56.50
2024-02-23T06:38:44.112Z,55.95
2024-02-23T06:41:12.075Z,56.67
2024-02-23T06:43:38.756Z,56.17
2024-02-23T06:46:08.315Z,56.84
2024-02-23T06:48:35.452Z,56.13
2024-02-23T06:51:02.255Z,55.88
2024-02-23T06:53:29.001Z,55.89
2024-02-23T06:55:55.712Z,55.94
2024-02-23T06:58:22.583Z,56.23
2024-02-23T07:00:49.382Z,56.82
2024-02-23T07:03:16.026Z,56.44
2024-02-23T07:05:43.619Z,56.01
2024-02-23T07:08:10.677Z,55.88
2024-02-23T07:10:37.242Z,55.94
2024-02-23T07:13:05.067Z,56.46
2024-02-23T07:15:34.167Z,55.54
2024-02-23T07:18:00.811Z,55.58
2024-02-23T07:20:27.445Z,55.55
2024-02-23T07:22:54.179Z,56.55
2024-02-23T07:25:24.123Z,55.69
2024-02-23T07:27:51.079Z,55.51
2024-02-23T07:30:18.388Z,55.62
2024-02-23T07:32:47.985Z,56.19
2024-02-23T07:35:16.733Z,56.25
2024-02-23T07:37:43.371Z,56.22
2024-02-23T07:40:10.237Z,56.16
2024-02-23T07:42:36.887Z,55.40
2024-02-23T07:45:05.406Z,55.71
2024-02-23T07:47:32.815Z,55.14
2024-02-23T07:50:00.044Z,55.41
2024-02-23T07:52:26.994Z,55.67
2024-02-23T07:54:54.056Z,54.95
2024-02-23T07:57:21.491Z,55.26
2024-02-23T07:59:48.744Z,55.48
2024-02-23T08:02:16.432Z,55.33
2024-02-23T08:04:43.682Z,55.19
2024-02-23T08:07:10.496Z,55.69
2024-02-23T08:09:37.218Z,55.20
2024-02-23T08:12:04.032Z,55.03
2024-02-23T08:14:30.736Z,55.26
2024-02-23T08:16:57.349Z,54.63
2024-02-23T08:19:24.160Z,54.71
2024-02-23T08:21:50.728Z,54.87
2024-02-23T08:24:17.299Z,54.93
2024-02-23T08:29:10.777Z,55.77
2024-02-23T08:31:39.602Z,56.01
2024-02-23T08:34:07.992Z,55.40
2024-02-23T08:36:34.553Z,55.56
2024-02-23T08:39:01.177Z,56.15
2024-02-23T08:41:27.831Z,54.99
2024-02-23T08:43:55.918Z,55.26
2024-02-23T08:46:22.931Z,55.97
2024-02-23T08:48:49.599Z,56.14
2024-02-23T08:51:16.224Z,56.30
2024-02-23T08:53:42.884Z,55.33
2024-02-23T08:56:10.659Z,55.63
2024-02-23T08:58:37.269Z,56.11
2024-02-23T09:01:05.453Z,56.00
2024-02-23T09:03:32.735Z,56.05
2024-02-23T09:05:59.479Z,55.21
2024-02-23T09:08:26.131Z,56.22
2024-02-23T09:10:52.892Z,55.44
2024-02-23T09:13:19.651Z,55.98
2024-02-23T09:15:46.265Z,55.06
2024-02-23T09:18:12.951Z,55.58
2024-02-23T09:20:39.615Z,54.64
2024-02-23T09:23:06.408Z,54.54
2024-02-23T09:25:33.039Z,55.27
2024-02-23T09:27:59.745Z,55.16
2024-02-23T09:30:26.369Z,54.18
2024-02-23T09:32:53.136Z,54.09
2024-02-23T09:35:19.983Z,54.65
2024-02-23T09:37:46.622Z,54.15
2024-02-23T09:40:13.299Z,54.60
2024-02-23T09:42:40.297Z,54.58
2024-02-23T09:45:08.128Z,54.63
2024-02-23T09:47:35.430Z,55.50
2024-02-23T09:50:05.403Z,54.76
2024-02-23T09:52:33.439Z,55.10
2024-02-23T09:55:00.440Z,54.71
2024-02-23T09:57:28.031Z,54.99
2024-02-23T09:59:55.850Z,54.29
2024-02-23T10:02:22.603Z,54.61
2024-02-23T10:04:51.076Z,54.88
2024-02-23T10:07:17.886Z,55.32
2024-02-23T10:09:44.718Z,54.36
2024-02-23T10:12:11.388Z,54.44
2024-02-23T10:14:38.108Z,55.26
2024-02-23T10:17:05.121Z,54.39
2024-02-23T10:19:31.986Z,55.22
2024-02-23T10:21:59.449Z,54.29
2024-02-23T10:24:26.486Z,55.52
2024-02-23T10:26:53.525Z,55.00
2024-02-23T10:29:22.642Z,54.61
2024-02-23T10:31:50.766Z,55.47
2024-02-23T10:34:20.522Z,55.67
2024-02-23T10:36:49.010Z,55.13
2024-02-23T10:39:20.044Z,56.52
2024-02-23T10:41:59.786Z,55.81
2024-02-23T10:44:29.153Z,55.46
2024-02-23T10:46:57.046Z,55.46
2024-02-23T10:49:27.917Z,55.20
2024-02-23T10:51:55.339Z,55.67
2024-02-23T10:54:22.806Z,55.34
2024-02-23T10:56:52.591Z,55.98
2024-02-23T10:59:20.405Z,55.30
2024-02-23T11:01:52.613Z,55.74
2024-02-23T11:04:22.208Z,55.50
2024-02-23T11:06:59.918Z,55.08
2024-02-23T11:09:27.260Z,55.01
2024-02-23T11:11:55.285Z,55.13
2024-02-23T11:14:36.148Z,54.86
2024-02-23T11:17:03.591Z,55.14
2024-02-23T11:19:38.184Z,55.80
2024-02-23T11:22:05.479Z,54.87
2024-02-23T11:24:33.513Z,55.04
2024-02-23T11:27:01.701Z,55.12
2024-02-23T11:29:30.135Z,55.32
2024-02-23T11:32:01.430Z,55.22
2024-02-23T11:34:29.012Z,55.12
2024-02-23T11:36:55.707Z,55.10
2024-02-23T11:39:22.909Z,54.65
2024-02-23T11:41:50.759Z,55.43
2024-02-23T11:44:18.518Z,55.25
2024-02-23T11:46:48.452Z,54.78
2024-02-23T11:49:17.095Z,54.67
2024-02-23T11:51:44.114Z,54.53
2024-02-23T11:54:10.963Z,54.62
2024-02-23T11:56:37.762Z,53.82
2024-02-23T11:59:04.891Z,54.66
2024-02-23T12:01:32.334Z,54.46
2024-02-23T12:03:59.270Z,54.42
2024-02-23T12:06:28.781Z,54.02
2024-02-23T12:08:55.911Z,53.84
2024-02-23T12:11:22.894Z,53.88
2024-02-23T12:13:50.237Z,54.26
2024-02-23T12:16:17.013Z,53.36
2024-02-23T12:18:43.578Z,53.56
2024-02-23T12:21:10.549Z,54.45
2024-02-23T12:23:44.442Z,53.71
2024-02-23T12:26:14.774Z,54.10
2024-02-23T12:28:42.761Z,53.62
2024-02-23T12:31:09.888Z,54.33
2024-02-23T12:33:41.609Z,54.54
2024-02-23T12:36:09.475Z,53.70
2024-02-23T12:38:36.732Z,54.41
2024-02-23T12:41:04.289Z,54.15
2024-02-23T12:43:33.788Z,53.80
2024-02-23T12:46:01.309Z,53.77
2024-02-23T12:48:27.963Z,53.43
2024-02-23T12:50:54.853Z,53.81
2024-02-23T12:53:41.942Z,54.03
2024-02-23T12:56:10.858Z,53.59
2024-02-23T12:58:39.078Z,53.97
2024-02-23T13:01:07.344Z,54.13
2024-02-23T13:03:35.304Z,53.64
2024-02-23T13:06:02.356Z,54.11
2024-02-23T13:08:29.159Z,54.15
2024-02-23T13:10:56.522Z,54.64
2024-02-23T13:13:23.302Z,53.45
2024-02-23T13:15:51.393Z,54.07
2024-02-23T13:18:19.075Z,54.36
2024-02-23T13:20:46.494Z,53.90
2024-02-23T13:23:14.083Z,54.58
2024-02-23T13:25:41.194Z,53.75
2024-02-23T13:28:09.813Z,54.27
2024-02-23T13:30:38.276Z,54.02
2024-02-23T13:33:06.345Z,54.84
2024-02-23T13:35:33.343Z,54.14
2024-02-23T13:38:00.377Z,55.09
2024-02-23T13:40:27.242Z,53.95
2024-02-23T13:42:54.658Z,54.09
2024-02-23T13:45:21.696Z,54.17
2024-02-23T13:48:02.267Z,53.78
2024-02-23T13:50:29.494Z,53.49
2024-02-23T13:52:56.436Z,53.86
2024-02-23T13:55:23.159Z,53.81
2024-02-23T13:57:50.863Z,54.25
2024-02-23T14:00:19.912Z,53.54
2024-02-23T14:02:47.391Z,53.82
2024-02-23T14:05:14.456Z,53.73
2024-02-23T14:07:41.344Z,53.49
2024-02-23T14:10:08.881Z,53.24
2024-02-23T14:12:35.749Z,53.19
2024-02-23T14:15:02.758Z,53.41
2024-02-23T14:17:29.552Z,53.41
2024-02-23T14:19:56.406Z,53.62
2024-02-23T14:22:23.250Z,53.29
2024-02-23T14:24:50.372Z,53.41
2024-02-23T14:27:17.034Z,53.90
2024-02-23T14:29:43.653Z,53.78
2024-02-23T14:32:11.210Z,53.57
2024-02-23T14:34:37.953Z,53.50
2024-02-23T14:37:04.866Z,53.43
2024-02-23T14:39:31.448Z,52.86
2024-02-23T14:41:58.710Z,52.88
2024-02-23T14:44:25.378Z,53.49
2024-02-23T14:46:51.960Z,53.78
2024-02-23T14:49:18.634Z,53.44
2024-02-23T14:51:46.981Z,53.85
2024-02-23T14:54:14.125Z,53.59
2024-02-23T14:56:40.811Z,53.40
2024-02-23T14:59:11.578Z,53.13
2024-02-23T15:01:39.447Z,53.80
2024-02-23T15:04:06.792Z,53.54
2024-02-23T15:06:33.582Z,53.28
2024-02-23T15:09:00.638Z,53.18
2024-02-23T15:11:27.455Z,53.52
2024-02-23T15:13:58.985Z,53.42
2024-02-23T15:16:26.689Z,53.69
2024-02-23T15:18:53.540Z,53.32
2024-02-23T15:21:20.934Z,53.45
2024-02-23T15:23:48.119Z,53.45
2024-02-23T15:26:15.114Z,53.59
2024-02-23T15:28:41.933Z,53.42
2024-02-23T15:31:08.705Z,53.17
2024-02-23T15:33:37.328Z,53.50
2024-02-23T15:36:05.849Z,53.55
2024-02-23T15:38:32.684Z,53.63
2024-02-23T15:40:59.455Z,53.50
2024-02-23T15:43:29.106Z,53.48
2024-02-23T15:45:56.208Z,53.33
2024-02-23T15:48:25.100Z,53.79
2024-02-23T15:51:09.644Z,53.77
2024-02-23T15:53:38.755Z,53.96
2024-02-23T15:56:05.863Z,53.29
2024-02-23T15:58:32.488Z,53.49
2024-02-23T16:00:59.238Z,53.64
2024-02-23T16:03:25.843Z,53.50
2024-02-23T16:05:52.690Z,53.90
2024-02-23T16:08:38.752Z,53.50
2024-02-23T16:11:05.415Z,53.40
2024-02-23T16:13:32.943Z,53.18
2024-02-23T16:15:59.791Z,53.62
2024-02-23T16:18:26.455Z,53.15
2024-02-23T16:20:54.126Z,53.57
2024-02-23T16:23:20.826Z,53.35
2024-02-23T16:25:47.484Z,54.01
2024-02-23T16:28:14.077Z,53.92
2024-02-23T16:30:42.654Z,54.02
2024-02-23T16:33:09.468Z,53.52
2024-02-23T16:35:36.119Z,54.08
2024-02-23T16:38:03.035Z,54.41
2024-02-23T16:40:30.117Z,54.09
2024-02-23T16:42:58.280Z,54.54
2024-02-23T16:45:28.253Z,53.70
2024-02-23T16:47:55.944Z,54.18
2024-02-23T16:50:22.714Z,54.03
2024-02-23T16:52:49.886Z,54.03
2024-02-23T16:55:19.711Z,54.37
2024-02-23T16:57:46.354Z,53.80
2024-02-23T17:00:13.397Z,53.77
2024-02-23T17:02:40.152Z,53.76
2024-02-23T17:05:07.039Z,54.07
2024-02-23T17:07:33.759Z,54.22
2024-02-23T17:10:00.442Z,54.48
2024-02-23T17:12:28.518Z,54.05
2024-02-23T17:14:55.351Z,54.07
2024-02-23T17:17:22.089Z,54.69
2024-02-23T17:19:48.775Z,54.03
2024-02-23T17:22:15.351Z,53.95
2024-02-23T17:24:42.034Z,54.19
2024-02-23T17:27:09.902Z,55.07
2024-02-23T17:29:36.564Z,54.28
2024-02-23T17:32:03.269Z,54.17
2024-02-23T17:34:29.994Z,54.87
2024-02-23T17:36:56.607Z,54.30
2024-02-23T17:39:24.448Z,54.12
2024-02-23T17:41:51.233Z,54.97
2024-02-23T17:44:19.041Z,54.85
2024-02-23T17:46:49.162Z,54.48
2024-02-23T17:49:16.565Z,53.86
2024-02-23T17:51:43.474Z,54.88
2024-02-23T17:56:36.902Z,54.06
2024-02-23T17:59:04.412Z,54.09
2024-02-23T18:01:31.289Z,54.91
2024-02-23T18:03:57.967Z,54.79
2024-02-23T18:06:25.014Z,54.49
2024-02-23T18:08:52.076Z,54.87
2024-02-23T18:11:19.184Z,55.04
2024-02-23T18:13:45.916Z,54.38
2024-02-23T18:16:14.670Z,54.63
2024-02-23T18:18:41.493Z,54.69
2024-02-23T18:21:08.327Z,54.44
2024-02-23T18:23:35.106Z,55.10
2024-02-23T18:26:01.792Z,54.32
2024-02-23T18:28:32.823Z,55.00
2024-02-23T18:30:59.986Z,54.69
2024-02-23T18:33:26.638Z,54.08
2024-02-23T18:35:53.751Z,54.74
2024-02-23T18:38:20.428Z,55.00
2024-02-23T18:40:47.036Z,54.30
2024-02-23T18:43:15.307Z,54.90
2024-02-23T18:45:42.096Z,55.04
2024-02-23T18:48:08.739Z,55.09
2024-02-23T18:50:35.388Z,54.35
2024-02-23T18:53:02.020Z,54.47
2024-02-23T18:55:30.004Z,54.96
2024-02-23T18:57:56.686Z,54.99
2024-02-23T19:00:23.422Z,54.79
2024-02-23T19:02:50.040Z,54.81
2024-02-23T19:05:16.816Z,55.27
2024-02-23T19:07:43.533Z,55.46
2024-02-23T19:10:10.464Z,55.31
2024-02-23T19:12:39.140Z,54.80
2024-02-23T19:15:06.737Z,55.33
2024-02-23T19:17:34.222Z,53.91
2024-02-23T19:20:01.059Z,55.27
2024-02-23T19:22:28.433Z,55.18
2024-02-23T19:24:55.156Z,55.12
2024-02-23T19:27:23.085Z,54.84
2024-02-23T19:29:49.680Z,55.27
2024-02-23T19:32:16.373Z,55.08
2024-02-23T19:34:43.030Z,55.15
2024-02-23T19:37:09.751Z,54.41
2024-02-23T19:39:36.330Z,54.05
2024-02-23T19:42:02.898Z,55.26
2024-02-23T19:44:30.515Z,54.78
2024-02-23T19:46:57.150Z,54.65
2024-02-23T19:49:23.836Z,54.22
2024-02-23T19:51:50.661Z,54.09
2024-02-23T19:54:17.338Z,55.00
2024-02-23T19:56:44.390Z,55.16
2024-02-23T19:59:11.047Z,54.54
2024-02-23T20:01:38.233Z,55.00
2024-02-23T20:04:04.926Z,55.67
2024-02-23T20:06:31.536Z,55.23
2024-02-23T20:08:58.179Z,55.39
2024-02-23T20:11:24.870Z,55.19
2024-02-23T20:13:51.562Z,55.23
2024-02-23T20:16:18.147Z,55.34
2024-02-23T20:18:44.792Z,55.37
2024-02-23T20:21:11.437Z,55.09
2024-02-23T20:23:38.088Z,55.92
2024-02-23T20:26:04.978Z,54.76
2024-02-23T20:28:32.770Z,55.56
2024-02-23T20:31:03.590Z,55.30
2024-02-23T20:33:30.770Z,55.04
2024-02-23T20:35:57.489Z,54.53
2024-02-23T20:38:24.119Z,55.44
2024-02-23T20:40:50.661Z,55.67
2024-02-23T20:43:17.843Z,55.28
2024-02-23T20:45:44.438Z,54.98
2024-02-23T20:48:11.632Z,55.32
2024-02-23T20:50:38.412Z,54.93
2024-02-23T20:53:05.055Z,54.57
2024-02-23T20:55:31.794Z,55.33
2024-02-23T20:57:58.406Z,55.32
2024-02-23T21:00:25.159Z,54.76
2024-02-23T21:02:55.097Z,54.31
2024-02-23T21:05:21.792Z,54.65
2024-02-23T21:07:48.465Z,55.20
2024-02-23T21:10:16.510Z,54.31
2024-02-23T21:12:43.464Z,54.47
2024-02-23T21:15:10.214Z,54.99
2024-02-23T21:17:37.417Z,55.50
2024-02-23T21:20:04.425Z,54.40
2024-02-23T21:22:31.011Z,55.21
2024-02-23T21:24:57.639Z,55.55
2024-02-23T21:27:24.174Z,55.15
2024-02-23T21:29:50.771Z,54.78
2024-02-23T21:32:17.396Z,54.67
2024-02-23T21:34:43.999Z,55.05
2024-02-23T21:37:13.548Z,54.50
2024-02-23T21:39:40.530Z,55.39
2024-02-23T21:42:07.127Z,54.71
2024-02-23T21:44:33.806Z,55.67
2024-02-23T21:47:00.608Z,54.47
2024-02-23T21:49:27.327Z,55.58
2024-02-23T21:51:53.906Z,55.56
2024-02-23T21:54:23.321Z,55.06
2024-02-23T21:56:49.910Z,55.71
2024-02-23T21:59:16.550Z,54.56
2024-02-23T22:01:43.277Z,55.43
2024-02-23T22:04:09.968Z,54.69
2024-02-23T22:06:36.559Z,55.35
2024-02-23T22:09:03.440Z,55.73
2024-02-23T22:11:30.150Z,54.86
2024-02-23T22:13:56.774Z,54.85
2024-02-23T22:16:24.139Z,55.69
2024-02-23T22:18:50.776Z,55.58
2024-02-23T22:21:20.328Z,55.46
2024-02-23T22:23:47.514Z,54.91
2024-02-23T22:26:14.367Z,55.45
2024-02-23T22:28:43.158Z,55.95
2024-02-23T22:31:09.803Z,55.63
2024-02-23T22:33:36.899Z,55.84
2024-02-23T22:36:03.674Z,55.92
2024-02-23T22:38:30.270Z,54.94
2024-02-23T22:40:56.820Z,55.68
2024-02-23T22:43:25.808Z,55.50
2024-02-23T22:45:54.566Z,55.07
2024-02-23T22:48:21.193Z,54.96
2024-02-23T22:50:47.920Z,54.94
2024-02-23T22:53:14.599Z,55.71
2024-02-23T22:55:42.620Z,55.38
2024-02-23T22:58:09.198Z,54.80
2024-02-23T23:00:36.224Z,55.52
2024-02-23T23:03:02.863Z,55.74
2024-02-23T23:05:29.615Z,55.34
2024-02-23T23:07:56.313Z,55.55
2024-02-23T23:10:22.916Z,54.89
2024-02-23T23:12:49.495Z,55.62
2024-02-23T23:15:16.337Z,55.50
2024-02-23T23:17:42.905Z,54.73
2024-02-23T23:20:09.868Z,55.82
2024-02-23T23:22:36.525Z,55.24
2024-02-23T23:25:03.382Z,54.88
2024-02-23T23:27:30.100Z,55.00
2024-02-23T23:29:56.667Z,55.72
2024-02-23T23:32:23.526Z,55.84
2024-02-23T23:34:52.039Z,55.95
2024-02-23T23:37:19.338Z,55.05
2024-02-23T23:39:45.945Z,55.92
2024-02-23T23:42:12.709Z,56.03
2024-02-23T23:44:39.325Z,54.94
2024-02-23T23:47:05.985Z,56.06
2024-02-23T23:49:32.539Z,55.15
2024-02-23T23:52:04.215Z,55.82
2024-02-23T23:54:31.836Z,55.82
2024-02-23T23:56:59.491Z,55.05
2024-02-23T23:59:26.255Z,55.83
